Morteza Dejagah

Olheiro-Chefe - Naft Tehran
20 Nov 2027
Sábado
Processo

Personalidade

Adaptabilidade (13) Ambição (15) Controvérsia (12) Lealdade (2) Pressão (16) Profissionalismo (17) Espírito Esportivo (2) Temperamento (1)

Perfil

Estilo de Treinamento Democrático
Licença Continental Pro
Determinação 9
Gestão de Pessoas 5
Motivação 3
Disciplina 8
Satisfação no Trabalho
100%
Fadiga
0%
Função Olheiro-Chefe
Salário 35.3K p/s
Contrato 14.03.2030

Desempenho

Comportamento Bom
Eficácia do Treinamento
29%
Desenvolvimento do Jogador
45%
Prevenção de Lesões
20%
Implementação Tática
55%

Eventos Recentes

Participou de uma reunião de recrutamento agora
Recomendou um alvo de transferência agora
Recomendou um alvo de transferência agora
Participou de uma reunião de recrutamento 7d atrás
Recomendou um alvo de transferência 7d atrás
Recomendou um alvo de transferência 7d atrás
Participou de uma reunião de recrutamento 7d atrás
Participou de uma reunião de recrutamento 7d atrás

Monitorando agora

79
Jogador Clube Status Habilidade Confiança Observado Última observação Último voto
Okardi Inikurogha Bayelsa United Ativo 97 / 83 40% 1 30.08.2027 -
Tiziano Dornell Almagro Negociando 102 / 129 40% 1 30.08.2027 -
Oscar Osorio Atletico Venezuela Ativo 120 / 123 40% 2 23.08.2027 -
Timothy Zechariah Rivers United Perdido 116 / 89 40% 1 23.08.2027 -
Mehdi Ghayedi Al Nasr Ativo 134 / 128 40% 4 16.08.2027 -
Ali Azadmehr Saipa Ativo 72 / 93 58% 1 12.07.2027 Aprovar
Lorent Tolaj Plymouth Argyle Perdido 133 / 134 40% 1 06.07.2027 -
Emil Riis Leicester City Ativo 118 / 140 40% 1 06.07.2027 -
Dale Taylor Blackpool Ativo 121 / 105 40% 1 28.06.2027 -
David Okereke Cremonese Ativo 125 / 134 40% 1 07.06.2027 -
Caio Vidal FC Copenhagen Ativo 128 / 129 63% 1 01.06.2027 Aprovar
Milad Jahanbakhsh Rah Ahan Ativo 92 / 118 55% 1 01.06.2027 -
Christian Saydee Wigan Athletic Ativo 103 / 119 40% 1 31.05.2027 Mais informações
Bruno Gomes Valletta Ativo 106 / 118 40% 1 08.01.2027 -
Alireza Azmoun Saba Ativo 85 / 86 51% 1 01.01.2027 -
Kenan Dervišagić Floriana Ativo 113 / 113 40% 1 31.12.2026 Mais informações
Georges-Kévin Nkoudou Al-Diriyah Ativo 123 / 124 40% 1 30.12.2026 -
Denis Makarov Krylya Sovetov Ativo 114 / 131 40% 1 29.12.2026 -
Milad Sarlak Foolad Ativo 109 / 122 40% 1 29.12.2026 -
Ivan Oleinikov Krylya Sovetov Ativo 118 / 115 40% 1 28.12.2026 -
Marouan Azarkan Al Nasr Ativo 110 / 117 40% 1 28.12.2026 -
Malcom Al Jazira Ativo 152 / 147 40% 2 26.12.2026 -
Saeid Vafaei Rah Ahan Ativo 100 / 117 40% 2 26.12.2026 -
Theo Bongonda Al-Faisaly Ativo 131 / 130 40% 1 25.12.2026 -
Younes Akbarpour Malavan Ativo 111 / 96 40% 1 25.12.2026 -
Mahamadou Doumbia Al-Ittihad Ativo 133 / 129 40% 1 24.12.2026 -
Oscar Al-Taawoun Ativo 159 / 151 40% 2 23.12.2026 -
Suleiman Camara Slovan Bratislava Ativo 127 / 126 40% 2 23.12.2026 -
Gerónimo Rivera Al Wahda Ativo 135 / 111 40% 1 22.12.2026 -
Kaveh Azmoun Siah Jamegan Ativo 136 / 123 40% 4 21.12.2026 -
Sina Asadbeigi Foolad Ativo 109 / 100 40% 2 19.12.2026 -
Veljko Birmančević Ferencvaros Ativo 140 / 142 40% 1 19.12.2026 -
Ali Hajsafi Rah Ahan Ativo 98 / 111 40% 2 18.12.2026 -
Damián Puebla Orenburg Ativo 132 / 110 40% 1 16.12.2026 -
Denzel Jubitana Neftchi Ativo 129 / 102 40% 1 14.12.2026 -
Milad Zakipour Tractor Ativo 116 / 99 40% 1 13.12.2026 -
Sobhan Khaghani Zob Ahan Ativo 106 / 114 40% 2 09.12.2026 -
Milson Al Jazira Ativo 138 / 112 40% 1 09.12.2026 -
Jasir Asani Esteghlal Ativo 109 / 118 40% 4 08.12.2026 -
Mohammad Javad Mohammadi Zob Ahan Ativo 104 / 96 40% 2 08.12.2026 -
Domagoj Drožđek Tractor Ativo 123 / 126 40% 1 06.12.2026 -
Mehdi Limouchi Sepahan Ativo 127 / 105 40% 2 05.12.2026 -
Ibrahim Bayesh Al Dhafra Ativo 128 / 108 40% 2 05.12.2026 -
Mohammad Mehdi Ahmadi Esteghlal Khuzestan Ativo 111 / 114 40% 1 04.12.2026 -
Oston O'runov Persepolis Ativo 113 / 114 40% 1 02.12.2026 -
Odiljon Hamrobekov Tractor Ativo 131 / 115 40% 4 30.11.2026 -
Ronaldo Vásquez Sumgayit Ativo 125 / 128 40% 1 30.11.2026 -
Mauro Rodrigues Botev Plovdiv Ativo 117 / 119 40% 1 27.11.2026 -
Saman Touranian Esteghlal Ativo 118 / 112 40% 1 26.11.2026 -
Fraser Murray Wigan Athletic Ativo 133 / 113 40% 1 26.11.2026 -
Sajjad Danaye Baghaki Esteghlal Khuzestan Ativo 89 / 93 40% 1 24.11.2026 -
Ehsan Karimi Padideh Ativo 115 / 111 40% 1 19.11.2026 -
Oussama Idrissi Ferencvaros Ativo 134 / 144 40% 4 17.11.2026 -
Mohammad Hossein Eslami Esteghlal Ativo 121 / 101 40% 1 17.11.2026 -
Shahriar Gholizadeh Gostaresh Foulad Ativo 102 / 108 40% 2 16.11.2026 -
Tibor Halilović Tractor Ativo 112 / 119 40% 1 14.11.2026 -
Mohammad Naderi Tractor Ativo 102 / 123 40% 1 11.11.2026 -
Mohammad Mehdi Ghanbari Esteghlal Khuzestan Ativo 111 / 101 40% 2 10.11.2026 -
Ibrahim Cissoko Zwolle Ativo 115 / 120 40% 1 08.11.2026 -
Pejman Ghoddos Gostaresh Foulad Ativo 134 / 134 40% 1 08.11.2026 -
Aljoša Matko Ujpest Ativo 112 / 122 40% 1 06.11.2026 -
Reda Khadra Qarabag Ativo 144 / 139 40% 1 06.11.2026 -
Daniel Kyerewaa Reading Ativo 123 / 114 40% 1 05.11.2026 -
Reza Shekari Persepolis Ativo 98 / 114 40% 1 03.11.2026 -
Ammar Ramadan DAC Dunajska Streda Ativo 127 / 137 40% 1 03.11.2026 -
Jonathan Levi Ferencvaros Ativo 123 / 110 40% 1 02.11.2026 -
Matthias Seidl Rapid Wien Ativo 126 / 138 40% 2 31.10.2026 -
Ghaem Eslamikhah Malavan Ativo 95 / 106 40% 1 28.10.2026 -
Reza Moharrami Rah Ahan Ativo 99 / 101 40% 1 23.10.2026 -
Mohammad Hossein Zavari Esteghlal Khuzestan Ativo 97 / 85 40% 1 20.10.2026 -
Mohammad Khodabandelou Persepolis Ativo 119 / 112 40% 1 19.10.2026 -
Sardar Pouraliganji Padideh Ativo 91 / 93 40% 2 16.10.2026 -
Houssem Aouar Al-Ittihad Ativo 144 / 154 40% 1 15.10.2026 -
Ollie Watkins Al-Hilal Ativo 139 / 135 40% 1 17.08.2026 -
Luca Marchetti Rah Ahan Ativo 92 / 109 40% 1 11.08.2026 -
Emiliano González Almagro Ativo 111 / 107 40% 1 02.08.2026 -
Juan Moreno La Luz Ativo 121 / 112 40% 1 02.08.2026 -
Dani Ojeda Huesca Ativo 99 / 122 40% 1 01.08.2026 -
Walter González Sportivo Luqueno Ativo 135 / 115 40% 1 01.08.2026 -